createdAt,value
2023-04-16T00:02:50.321Z,6.80
2023-04-16T00:07:42.387Z,3.65
2023-04-16T00:12:34.489Z,7.47
2023-04-16T00:17:26.500Z,5.18
2023-04-16T00:22:18.306Z,5.63
2023-04-16T00:27:10.286Z,8.52
2023-04-16T00:32:02.305Z,7.05
2023-04-16T00:36:54.251Z,9.38
2023-04-16T00:41:46.499Z,8.85
2023-04-16T00:46:38.712Z,5.68
2023-04-16T00:51:32.016Z,8.65
2023-04-16T00:56:26.996Z,6.65
2023-04-16T01:01:20.162Z,5.90
2023-04-16T01:06:12.400Z,5.90
2023-04-16T01:11:04.429Z,6.25
2023-04-16T01:15:57.133Z,6.07
2023-04-16T01:20:49.724Z,7.13
2023-04-16T01:25:41.835Z,8.00
2023-04-16T01:30:34.044Z,4.80
2023-04-16T01:35:48.748Z,7.97
2023-04-16T01:40:41.075Z,4.65
2023-04-16T01:45:33.946Z,5.80
2023-04-16T01:50:25.742Z,4.97
2023-04-16T01:55:17.590Z,6.07
2023-04-16T02:00:09.782Z,4.93
2023-04-16T02:05:10.160Z,8.40
2023-04-16T02:10:02.128Z,7.10
2023-04-16T02:14:54.348Z,8.63
2023-04-16T02:19:49.006Z,3.80
2023-04-16T02:24:42.193Z,5.90
2023-04-16T02:29:35.989Z,6.53
2023-04-16T02:34:35.667Z,8.43
2023-04-16T02:39:27.929Z,5.32
2023-04-16T02:44:20.418Z,6.65
2023-04-16T02:49:12.952Z,4.88
2023-04-16T02:54:04.746Z,4.93
2023-04-16T02:58:57.706Z,6.28
2023-04-16T03:03:50.097Z,12.30
2023-04-16T03:08:41.891Z,3.38
2023-04-16T03:13:33.704Z,9.82
2023-04-16T03:18:25.625Z,6.32
2023-04-16T03:23:17.360Z,5.22
2023-04-16T03:28:09.426Z,7.70
2023-04-16T03:33:03.289Z,7.25
2023-04-16T03:37:55.166Z,8.60
2023-04-16T03:42:47.118Z,5.53
2023-04-16T03:47:38.949Z,6.70
2023-04-16T03:52:30.800Z,14.75
2023-04-16T03:57:22.696Z,9.18
2023-04-16T04:02:14.638Z,3.22
2023-04-16T04:07:07.683Z,4.20
2023-04-16T04:11:59.540Z,5.82
2023-04-16T04:16:52.550Z,5.15
2023-04-16T04:21:44.448Z,4.32
2023-04-16T04:26:36.444Z,5.32
2023-04-16T04:31:28.584Z,11.40
2023-04-16T04:36:21.299Z,12.15
2023-04-16T04:41:13.261Z,5.05
2023-04-16T04:46:05.237Z,6.43
2023-04-16T04:50:57.776Z,7.30
2023-04-16T04:55:53.131Z,4.80
2023-04-16T05:00:46.411Z,5.10
2023-04-16T05:05:39.656Z,9.43
2023-04-16T05:10:31.396Z,10.02
2023-04-16T05:15:23.317Z,10.55
2023-04-16T05:20:15.100Z,14.63
2023-04-16T05:25:07.068Z,6.00
2023-04-16T05:29:58.877Z,7.53
2023-04-16T05:34:50.924Z,7.15
2023-04-16T05:39:42.738Z,5.22
2023-04-16T05:44:34.526Z,6.03
2023-04-16T05:49:26.268Z,10.90
2023-04-16T05:54:18.124Z,7.88
2023-04-16T05:59:10.187Z,5.80
2023-04-16T06:04:02.658Z,5.82
2023-04-16T06:08:54.604Z,6.43
2023-04-16T06:13:46.495Z,6.90
2023-04-16T06:18:38.275Z,5.72
2023-04-16T06:23:30.094Z,9.45
2023-04-16T06:28:22.344Z,7.90
2023-04-16T06:33:14.367Z,3.95
2023-04-16T06:38:06.198Z,3.72
2023-04-16T06:42:57.965Z,6.00
2023-04-16T06:47:50.014Z,11.57
2023-04-16T06:52:41.881Z,7.13
2023-04-16T06:57:35.635Z,4.20
2023-04-16T07:02:28.843Z,8.18
2023-04-16T07:07:20.797Z,7.18
2023-04-16T07:12:13.508Z,9.20
2023-04-16T07:17:05.338Z,8.88
2023-04-16T07:21:57.103Z,7.93
2023-04-16T07:26:48.853Z,8.68
2023-04-16T07:31:40.778Z,9.35
2023-04-16T07:36:32.608Z,9.40
2023-04-16T07:41:24.573Z,7.93
2023-04-16T07:46:16.435Z,10.80
2023-04-16T07:51:08.442Z,6.80
2023-04-16T07:56:00.252Z,10.90
2023-04-16T08:00:52.089Z,11.20
2023-04-16T08:05:43.948Z,7.95
2023-04-16T08:10:35.881Z,9.32
2023-04-16T08:15:28.092Z,9.10
2023-04-16T08:20:20.068Z,9.45
2023-04-16T08:25:15.322Z,6.80
2023-04-16T08:30:08.035Z,7.43
2023-04-16T08:34:59.890Z,7.85
2023-04-16T08:39:51.791Z,5.95
2023-04-16T08:44:49.344Z,14.63
2023-04-16T08:49:46.363Z,8.80
2023-04-16T08:54:56.914Z,8.73
2023-04-16T08:59:50.229Z,5.75
2023-04-16T09:04:42.930Z,5.60
2023-04-16T09:09:35.608Z,6.70
2023-04-16T09:14:27.385Z,7.18
2023-04-16T09:19:19.268Z,7.50
2023-04-16T09:24:11.815Z,7.75
2023-04-16T09:29:03.668Z,6.88
2023-04-16T09:34:07.213Z,7.90
2023-04-16T09:38:59.973Z,5.03
2023-04-16T09:43:59.174Z,6.70
2023-04-16T09:48:51.132Z,7.05
2023-04-16T09:53:42.917Z,4.32
2023-04-16T09:58:38.546Z,7.28
2023-04-16T10:03:35.115Z,6.65
2023-04-16T10:08:28.241Z,5.30
2023-04-16T10:13:20.165Z,5.10
2023-04-16T10:18:13.291Z,5.43
2023-04-16T10:23:05.697Z,4.68
2023-04-16T10:27:57.640Z,5.03
2023-04-16T10:32:50.386Z,4.20
2023-04-16T10:37:42.528Z,4.18
2023-04-16T10:42:34.833Z,3.25
2023-04-16T10:47:26.927Z,1.98
2023-04-16T10:52:18.827Z,3.13
2023-04-16T10:57:16.349Z,3.75
2023-04-16T11:02:16.625Z,3.75
2023-04-16T11:07:11.855Z,3.08
2023-04-16T11:12:08.405Z,1.67
2023-04-16T11:17:03.860Z,3.38
2023-04-16T11:21:56.345Z,3.00
2023-04-16T11:26:51.553Z,4.10
2023-04-16T11:31:49.910Z,3.28
2023-04-16T11:41:46.407Z,2.92
2023-04-16T11:46:40.091Z,2.83
2023-04-16T11:51:32.674Z,1.88
2023-04-16T11:56:32.452Z,2.65
2023-04-16T12:01:24.239Z,2.17
2023-04-16T12:06:16.178Z,4.63
2023-04-16T12:11:08.093Z,2.63
2023-04-16T12:15:59.999Z,11.25
2023-04-16T12:20:51.866Z,3.17
2023-04-16T12:25:43.662Z,5.78
2023-04-16T12:30:50.471Z,2.10
2023-04-16T12:35:43.641Z,3.53
2023-04-16T12:40:36.275Z,2.20
2023-04-16T12:45:28.325Z,3.42
2023-04-16T12:50:20.285Z,2.67
2023-04-16T12:55:12.542Z,3.05
2023-04-16T13:00:06.844Z,1.10
2023-04-16T13:04:58.715Z,2.30
2023-04-16T13:09:50.654Z,3.42
2023-04-16T13:14:44.006Z,2.13
2023-04-16T13:19:36.853Z,0.95
2023-04-16T13:24:28.683Z,3.05
2023-04-16T13:29:20.960Z,2.45
2023-04-16T13:34:12.809Z,2.58
2023-04-16T13:39:05.487Z,1.83
2023-04-16T13:43:57.283Z,2.15
2023-04-16T13:48:49.082Z,1.05
2023-04-16T13:53:41.082Z,1.92
2023-04-16T13:58:33.663Z,1.40
2023-04-16T14:03:27.161Z,2.70
2023-04-16T14:08:21.500Z,0.85
2023-04-16T14:13:13.511Z,1.75
2023-04-16T14:18:05.522Z,1.77
2023-04-16T14:22:57.616Z,1.00
2023-04-16T14:27:49.489Z,3.58
2023-04-16T14:32:41.546Z,2.38
2023-04-16T14:37:35.973Z,1.70
2023-04-16T14:42:28.038Z,2.92
2023-04-16T14:47:19.902Z,1.98
2023-04-16T14:52:11.808Z,2.35
2023-04-16T14:57:03.784Z,1.85
2023-04-16T15:01:57.188Z,1.60
2023-04-16T15:06:49.862Z,1.30
2023-04-16T15:11:41.711Z,2.50
2023-04-16T15:16:33.644Z,2.80
2023-04-16T15:21:26.774Z,2.25
2023-04-16T15:26:18.617Z,1.05
2023-04-16T15:31:10.462Z,3.97
2023-04-16T15:36:02.324Z,4.78
2023-04-16T15:40:54.270Z,1.67
2023-04-16T15:45:46.057Z,2.13
2023-04-16T15:50:37.891Z,1.33
2023-04-16T15:55:29.752Z,2.42
2023-04-16T16:00:21.573Z,2.10
2023-04-16T16:05:14.561Z,2.10
2023-04-16T16:10:07.700Z,1.17
2023-04-16T16:14:59.619Z,3.40
2023-04-16T16:19:52.599Z,1.55
2023-04-16T16:24:44.533Z,1.42
2023-04-16T16:29:36.339Z,1.67
2023-04-16T16:34:28.456Z,1.55
2023-04-16T16:39:24.473Z,1.08
2023-04-16T16:44:16.262Z,1.45
2023-04-16T16:49:10.044Z,5.35
2023-04-16T16:54:01.980Z,1.08
2023-04-16T16:58:54.059Z,1.20
2023-04-16T17:03:46.170Z,1.13
2023-04-16T17:08:38.090Z,3.25
2023-04-16T17:13:30.413Z,1.52
2023-04-16T17:18:22.248Z,2.95
2023-04-16T17:23:14.407Z,4.18
2023-04-16T17:28:06.272Z,7.20
2023-04-16T17:32:58.135Z,6.93
2023-04-16T17:37:49.966Z,7.68
2023-04-16T17:42:41.822Z,3.90
2023-04-16T17:47:37.449Z,3.17
2023-04-16T17:52:29.507Z,3.35
2023-04-16T17:57:21.385Z,2.20
2023-04-16T18:02:13.251Z,5.18
2023-04-16T18:07:05.104Z,4.65
2023-04-16T18:11:57.264Z,1.88
2023-04-16T18:16:49.578Z,5.40
2023-04-16T18:21:41.370Z,2.40
2023-04-16T18:26:35.622Z,2.10
2023-04-16T18:31:28.070Z,2.95
2023-04-16T18:36:19.920Z,1.52
2023-04-16T18:41:21.044Z,1.27
2023-04-16T18:46:13.557Z,1.58
2023-04-16T18:51:05.728Z,1.48
2023-04-16T18:55:57.757Z,1.70
2023-04-16T19:00:54.394Z,2.58
2023-04-16T19:05:46.224Z,1.85
2023-04-16T19:10:38.011Z,5.28
2023-04-16T19:15:31.651Z,1.98
2023-04-16T19:20:24.987Z,2.67
2023-04-16T19:25:16.888Z,2.25
2023-04-16T19:30:09.252Z,1.77
2023-04-16T19:35:01.216Z,5.65
2023-04-16T19:39:54.966Z,1.85
2023-04-16T19:44:46.821Z,2.17
2023-04-16T19:49:38.653Z,3.28
2023-04-16T19:54:33.706Z,4.07
2023-04-16T19:59:28.347Z,3.92
2023-04-16T20:04:20.215Z,3.58
2023-04-16T20:09:12.216Z,1.90
2023-04-16T20:14:04.200Z,2.47
2023-04-16T20:18:56.058Z,3.28
2023-04-16T20:23:48.305Z,3.75
2023-04-16T20:28:40.072Z,3.17
2023-04-16T20:33:31.847Z,3.72
2023-04-16T20:38:24.046Z,3.35
2023-04-16T20:43:18.985Z,2.90
2023-04-16T20:48:12.013Z,3.80
2023-04-16T20:53:03.865Z,2.10
2023-04-16T20:57:55.700Z,3.10
2023-04-16T21:02:47.641Z,4.43
2023-04-16T21:07:40.311Z,5.22
2023-04-16T21:12:32.104Z,2.08
2023-04-16T21:17:24.066Z,2.90
2023-04-16T21:22:16.106Z,2.45
2023-04-16T21:27:08.001Z,4.63
2023-04-16T21:31:59.880Z,2.90
2023-04-16T21:36:51.672Z,4.25
2023-04-16T21:41:43.545Z,3.25
2023-04-16T21:46:35.337Z,5.35
2023-04-16T21:51:30.024Z,2.97
2023-04-16T21:56:22.309Z,3.20
2023-04-16T22:01:14.179Z,3.53
2023-04-16T22:06:06.256Z,6.82
2023-04-16T22:11:02.984Z,3.45
2023-04-16T22:15:55.189Z,2.78
2023-04-16T22:20:51.090Z,2.95
2023-04-16T22:25:42.962Z,3.17
2023-04-16T22:30:34.751Z,4.32
2023-04-16T22:35:26.653Z,3.80
2023-04-16T22:40:18.471Z,1.90
2023-04-16T22:45:10.828Z,8.20
2023-04-16T22:50:03.543Z,2.67
2023-04-16T22:54:55.364Z,2.92
2023-04-16T22:59:47.149Z,5.25
2023-04-16T23:04:38.980Z,4.28
2023-04-16T23:09:31.548Z,3.20
2023-04-16T23:14:23.880Z,2.95
2023-04-16T23:19:15.991Z,3.95
2023-04-16T23:24:08.123Z,2.40
2023-04-16T23:29:00.508Z,2.65
2023-04-16T23:33:52.379Z,3.47
2023-04-16T23:38:44.184Z,3.90
2023-04-16T23:43:36.644Z,2.08
2023-04-16T23:48:28.995Z,3.38
2023-04-16T23:53:20.807Z,3.05
2023-04-16T23:58:12.545Z,4.60
